createdAt,value
2018-04-02T00:00:17.061Z,6.43
2018-04-02T00:01:17.051Z,6.44
2018-04-02T00:02:17.052Z,6.46
2018-04-02T00:03:17.032Z,6.44
2018-04-02T00:04:17.028Z,6.44
2018-04-02T00:05:17.037Z,6.44
2018-04-02T00:06:17.064Z,6.43
2018-04-02T00:07:17.090Z,6.44
2018-04-02T00:08:17.034Z,6.44
2018-04-02T00:09:17.029Z,6.46
2018-04-02T00:10:17.038Z,6.46
2018-04-02T00:11:17.029Z,6.43
2018-04-02T00:12:17.114Z,6.46
2018-04-02T00:13:17.025Z,6.44
2018-04-02T00:14:17.056Z,6.43
2018-04-02T00:15:17.038Z,6.44
2018-04-02T00:16:17.029Z,6.46
2018-04-02T00:17:17.065Z,6.43
2018-04-02T00:18:17.028Z,6.41
2018-04-02T00:19:17.034Z,6.43
2018-04-02T00:20:17.149Z,6.41
2018-04-02T00:21:17.071Z,6.4
2018-04-02T00:22:17.049Z,6.4
2018-04-02T00:23:17.051Z,6.41
2018-04-02T00:24:17.041Z,6.37
2018-04-02T00:25:17.044Z,6.37
2018-04-02T00:26:17.046Z,6.36
2018-04-02T00:27:17.034Z,6.33
2018-04-02T00:28:17.040Z,6.33
2018-04-02T00:29:17.036Z,6.32
2018-04-02T00:30:17.065Z,6.32
2018-04-02T00:31:17.046Z,6.35
2018-04-02T00:32:17.045Z,6.33
2018-04-02T00:33:17.056Z,6.33
2018-04-02T00:34:17.040Z,6.35
2018-04-02T00:35:17.049Z,6.35
2018-04-02T00:36:17.044Z,6.35
2018-04-02T00:37:17.055Z,6.36
2018-04-02T00:38:17.053Z,6.36
2018-04-02T00:39:17.045Z,6.37
2018-04-02T00:40:17.046Z,6.39
2018-04-02T00:41:17.057Z,6.4
2018-04-02T00:42:17.082Z,6.41
2018-04-02T00:43:17.050Z,6.43
2018-04-02T00:44:17.042Z,6.44
2018-04-02T00:45:17.055Z,6.43
2018-04-02T00:46:17.048Z,6.48
2018-04-02T00:47:17.057Z,6.5
2018-04-02T00:48:17.067Z,6.5
2018-04-02T00:49:17.056Z,6.5
2018-04-02T00:50:17.049Z,6.5
2018-04-02T00:51:17.152Z,6.51
2018-04-02T00:52:17.051Z,6.54
2018-04-02T00:53:17.079Z,6.54
2018-04-02T00:54:17.046Z,6.54
2018-04-02T00:55:17.048Z,6.54
2018-04-02T00:56:17.053Z,6.57
2018-04-02T00:57:17.057Z,6.57
2018-04-02T00:58:17.064Z,6.57
2018-04-02T00:59:17.064Z,6.56
2018-04-02T01:00:17.048Z,6.57
2018-04-02T01:01:17.049Z,6.58
2018-04-02T01:02:17.053Z,6.58
2018-04-02T01:03:17.076Z,6.57
2018-04-02T01:04:17.054Z,6.57
2018-04-02T01:05:17.186Z,6.6
2018-04-02T01:06:17.057Z,6.58
2018-04-02T01:07:17.053Z,6.58
2018-04-02T01:08:17.062Z,6.6
2018-04-02T01:09:17.067Z,6.6
2018-04-02T01:10:17.051Z,6.6
2018-04-02T01:11:17.056Z,6.57
2018-04-02T01:12:17.110Z,6.61
2018-04-02T01:13:17.269Z,6.63
2018-04-02T01:14:17.051Z,6.61
2018-04-02T01:15:17.053Z,6.6
2018-04-02T01:16:17.061Z,6.6
2018-04-02T01:17:17.053Z,6.63
2018-04-02T01:18:17.099Z,6.63
2018-04-02T01:19:17.065Z,6.61
2018-04-02T01:20:17.085Z,6.63
2018-04-02T01:21:17.091Z,6.6
2018-04-02T01:22:17.160Z,6.6
2018-04-02T01:23:17.085Z,6.6
2018-04-02T01:24:17.075Z,6.58
2018-04-02T01:25:17.056Z,6.58
2018-04-02T01:26:17.053Z,6.6
2018-04-02T01:27:17.052Z,6.6
2018-04-02T01:28:17.064Z,6.6
2018-04-02T01:29:17.056Z,6.63
2018-04-02T01:30:17.111Z,6.58
2018-04-02T01:31:17.069Z,6.6
2018-04-02T01:32:17.062Z,6.61
2018-04-02T01:33:17.057Z,6.6
2018-04-02T01:34:17.064Z,6.6
2018-04-02T01:35:17.058Z,6.58
2018-04-02T01:36:17.058Z,6.61
2018-04-02T01:37:17.072Z,6.6
2018-04-02T01:38:17.075Z,6.58
2018-04-02T01:39:17.079Z,6.58
2018-04-02T01:40:17.072Z,6.57
2018-04-02T01:41:17.069Z,6.57
2018-04-02T01:42:17.077Z,6.57
2018-04-02T01:43:17.067Z,6.57
2018-04-02T01:44:17.085Z,6.6
2018-04-02T01:45:17.069Z,6.58
2018-04-02T01:46:17.070Z,6.58
2018-04-02T01:47:17.067Z,6.57
2018-04-02T01:48:17.071Z,6.53
2018-04-02T01:49:17.072Z,6.56
2018-04-02T01:50:17.064Z,6.56
2018-04-02T01:51:17.064Z,6.54
2018-04-02T01:52:17.067Z,6.51
2018-04-02T01:53:17.152Z,6.53
2018-04-02T01:54:17.075Z,6.53
2018-04-02T01:55:17.082Z,6.51
2018-04-02T01:56:17.063Z,6.5
2018-04-02T01:57:17.069Z,6.51
2018-04-02T01:58:17.086Z,6.51
2018-04-02T01:59:17.080Z,6.47
2018-04-02T02:00:17.089Z,6.48
2018-04-02T02:01:17.076Z,6.48
2018-04-02T02:02:17.082Z,6.47
2018-04-02T02:03:17.081Z,6.47
2018-04-02T02:04:17.079Z,6.5
2018-04-02T02:05:17.074Z,6.46
2018-04-02T02:06:17.063Z,6.44
2018-04-02T02:07:17.082Z,6.44
2018-04-02T02:08:17.132Z,6.41
2018-04-02T02:09:17.075Z,6.43
2018-04-02T02:10:17.073Z,6.46
2018-04-02T02:11:17.080Z,6.47
2018-04-02T02:12:17.076Z,6.43
2018-04-02T02:13:17.077Z,6.44
2018-04-02T02:14:17.074Z,6.4
2018-04-02T02:15:17.107Z,6.41
2018-04-02T02:16:17.087Z,6.41
2018-04-02T02:17:17.077Z,6.41
2018-04-02T02:18:17.086Z,6.43
2018-04-02T02:19:17.075Z,6.41
2018-04-02T02:20:17.072Z,6.43
2018-04-02T02:21:17.321Z,6.41
2018-04-02T02:22:17.096Z,6.44
2018-04-02T02:23:17.084Z,6.44
2018-04-02T02:24:17.142Z,6.43
2018-04-02T02:25:17.076Z,6.4
2018-04-02T02:26:17.102Z,6.43
2018-04-02T02:27:17.080Z,6.4
2018-04-02T02:28:17.083Z,6.4
2018-04-02T02:29:17.105Z,6.39
2018-04-02T02:30:17.778Z,6.39
2018-04-02T02:31:17.163Z,6.37
2018-04-02T02:32:17.096Z,6.36
2018-04-02T02:33:17.121Z,6.32
2018-04-02T02:34:17.094Z,6.33
2018-04-02T02:35:17.093Z,6.32
2018-04-02T02:36:17.096Z,6.32
2018-04-02T02:37:17.085Z,6.33
2018-04-02T02:38:17.087Z,6.3
2018-04-02T02:39:17.099Z,6.29
2018-04-02T02:40:17.094Z,6.28
2018-04-02T02:41:17.111Z,6.23
2018-04-02T02:42:17.088Z,6.25
2018-04-02T02:43:17.125Z,6.23
2018-04-02T02:44:17.091Z,6.22
2018-04-02T02:45:17.108Z,6.2
2018-04-02T02:46:17.154Z,6.19
2018-04-02T02:47:17.089Z,6.15
2018-04-02T02:48:17.105Z,6.13
2018-04-02T02:49:17.107Z,6.15
2018-04-02T02:50:17.134Z,6.13
2018-04-02T02:51:17.086Z,6.12
2018-04-02T02:52:17.087Z,6.11
2018-04-02T02:53:17.093Z,6.08
2018-04-02T02:54:17.112Z,6.08
2018-04-02T02:55:17.186Z,6.08
2018-04-02T02:56:17.108Z,6.04
2018-04-02T02:57:17.097Z,6.04
2018-04-02T02:58:17.091Z,6
2018-04-02T02:59:17.098Z,6
2018-04-02T03:00:17.099Z,5.98
2018-04-02T03:01:17.115Z,5.97
2018-04-02T03:02:17.113Z,5.95
2018-04-02T03:03:17.095Z,5.94
2018-04-02T03:04:17.135Z,5.92
2018-04-02T03:05:17.113Z,5.9
2018-04-02T03:06:17.108Z,5.88
2018-04-02T03:07:17.110Z,5.87
2018-04-02T03:08:17.087Z,5.83
2018-04-02T03:09:17.099Z,5.83
2018-04-02T03:10:17.091Z,5.83
2018-04-02T03:11:17.156Z,5.83
2018-04-02T03:12:17.123Z,5.81
2018-04-02T03:13:17.092Z,5.81
2018-04-02T03:14:17.162Z,5.8
2018-04-02T03:15:17.116Z,5.78
2018-04-02T03:16:17.094Z,5.75
2018-04-02T03:17:17.088Z,5.74
2018-04-02T03:18:17.100Z,5.71
2018-04-02T03:19:17.093Z,5.67
2018-04-02T03:20:17.094Z,5.67
2018-04-02T03:21:17.130Z,5.66
2018-04-02T03:22:17.096Z,5.67
2018-04-02T03:23:17.111Z,5.63
2018-04-02T03:24:17.167Z,5.62
2018-04-02T03:25:17.092Z,5.62
2018-04-02T03:26:17.165Z,5.56
2018-04-02T03:27:17.117Z,5.53
2018-04-02T03:28:17.104Z,5.53
2018-04-02T03:29:17.102Z,5.51
2018-04-02T03:30:17.113Z,5.49
2018-04-02T03:31:17.116Z,5.46
2018-04-02T03:32:17.095Z,5.45
2018-04-02T03:33:17.116Z,5.43
2018-04-02T03:34:17.106Z,5.42
2018-04-02T03:35:17.121Z,5.4
2018-04-02T03:36:17.110Z,5.38
2018-04-02T03:37:17.104Z,5.38
2018-04-02T03:38:17.105Z,5.33
2018-04-02T03:39:17.101Z,5.26
2018-04-02T03:40:17.104Z,5.26
2018-04-02T03:41:17.100Z,5.26
2018-04-02T03:42:17.131Z,5.23
2018-04-02T03:43:17.114Z,5.22
2018-04-02T03:44:17.106Z,5.21
2018-04-02T03:45:17.103Z,5.19
2018-04-02T03:46:17.105Z,5.19
2018-04-02T03:47:17.113Z,5.18
2018-04-02T03:48:17.100Z,5.15
2018-04-02T03:49:17.128Z,5.12
2018-04-02T03:50:17.110Z,5.1
2018-04-02T03:51:17.108Z,5.1
2018-04-02T03:52:17.099Z,5.11
2018-04-02T03:53:17.106Z,5.07
2018-04-02T03:54:17.103Z,5.05
2018-04-02T03:55:17.099Z,5.04
2018-04-02T03:56:17.104Z,5.01
2018-04-02T03:57:17.195Z,5.01
2018-04-02T03:58:17.119Z,5
2018-04-02T03:59:17.124Z,5.01
2018-04-02T04:00:17.117Z,4.98
2018-04-02T04:01:17.113Z,4.97
2018-04-02T04:02:17.119Z,4.95
2018-04-02T04:03:17.136Z,4.98
2018-04-02T04:04:17.128Z,4.97
2018-04-02T04:05:17.109Z,5
2018-04-02T04:06:17.116Z,4.97
2018-04-02T04:07:17.134Z,4.97
2018-04-02T04:08:17.111Z,4.94
2018-04-02T04:09:17.108Z,4.98
2018-04-02T04:10:17.109Z,4.93
2018-04-02T04:11:17.110Z,4.94
2018-04-02T04:12:17.473Z,4.91
2018-04-02T04:13:17.125Z,4.88
2018-04-02T04:14:17.117Z,4.88
2018-04-02T04:15:17.108Z,4.86
2018-04-02T04:16:17.115Z,4.87
2018-04-02T04:17:17.130Z,4.83
2018-04-02T04:18:17.130Z,4.81
2018-04-02T04:19:17.117Z,4.81
2018-04-02T04:20:17.114Z,4.8
2018-04-02T04:21:17.111Z,4.76
2018-04-02T04:22:17.106Z,4.76
2018-04-02T04:23:17.129Z,4.74
2018-04-02T04:24:17.134Z,4.73
2018-04-02T04:25:17.108Z,4.76
2018-04-02T04:26:17.114Z,4.74
2018-04-02T04:27:17.137Z,4.76
2018-04-02T04:28:17.265Z,4.74
2018-04-02T04:29:17.120Z,4.72
2018-04-02T04:30:17.114Z,4.73
2018-04-02T04:31:17.111Z,4.7
2018-04-02T04:32:17.120Z,4.7
2018-04-02T04:33:17.119Z,4.66
2018-04-02T04:34:17.128Z,4.66
2018-04-02T04:35:17.134Z,4.66
2018-04-02T04:36:17.148Z,4.66
2018-04-02T04:37:17.112Z,4.67
2018-04-02T04:38:17.133Z,4.65
2018-04-02T04:39:17.143Z,4.63
2018-04-02T04:40:17.246Z,4.62
2018-04-02T04:41:17.132Z,4.63
2018-04-02T04:42:17.115Z,4.62
2018-04-02T04:43:17.113Z,4.62
2018-04-02T04:44:17.491Z,4.62
2018-04-02T04:45:17.116Z,4.6
2018-04-02T04:46:17.118Z,4.59
2018-04-02T04:47:17.125Z,4.59
2018-04-02T04:48:17.107Z,4.59
2018-04-02T04:49:17.199Z,4.59
2018-04-02T04:50:17.115Z,4.59
2018-04-02T04:51:17.118Z,4.6
2018-04-02T04:52:17.130Z,4.63
2018-04-02T04:53:17.144Z,4.57
2018-04-02T04:54:17.131Z,4.6
2018-04-02T04:55:17.457Z,4.62
2018-04-02T04:56:17.117Z,4.62
2018-04-02T04:57:17.122Z,4.53
2018-04-02T04:58:17.132Z,4.51
2018-04-02T04:59:17.203Z,4.48
2018-04-02T05:00:17.143Z,4.49
2018-04-02T05:01:17.123Z,4.51
2018-04-02T05:02:17.130Z,4.49
2018-04-02T05:03:17.126Z,4.49
2018-04-02T05:04:17.141Z,4.49
2018-04-02T05:05:17.145Z,4.52
2018-04-02T05:06:17.121Z,4.55
2018-04-02T05:07:17.121Z,4.53
2018-04-02T05:08:17.130Z,4.55
2018-04-02T05:09:17.209Z,4.57
2018-04-02T05:10:17.156Z,4.53
2018-04-02T05:11:17.133Z,4.55
2018-04-02T05:12:17.163Z,4.55
2018-04-02T05:13:17.132Z,4.55
2018-04-02T05:14:17.118Z,4.57
2018-04-02T05:15:17.159Z,4.57
2018-04-02T05:16:17.142Z,4.6
2018-04-02T05:17:17.129Z,4.57
2018-04-02T05:18:17.145Z,4.52
2018-04-02T05:19:17.128Z,4.49
2018-04-02T05:20:17.156Z,4.46
2018-04-02T05:21:17.127Z,4.45
2018-04-02T05:22:17.135Z,4.46
2018-04-02T05:23:17.139Z,4.43
2018-04-02T05:24:17.129Z,4.45
2018-04-02T05:25:17.165Z,4.48
2018-04-02T05:26:17.134Z,4.46
2018-04-02T05:27:17.128Z,4.46
2018-04-02T05:28:17.121Z,4.46
2018-04-02T05:29:17.127Z,4.46
2018-04-02T05:30:17.301Z,4.46
2018-04-02T05:31:17.137Z,4.46
2018-04-02T05:32:17.143Z,4.46
2018-04-02T05:33:17.150Z,4.46
2018-04-02T05:34:17.137Z,4.42
2018-04-02T05:35:17.145Z,4.4
2018-04-02T05:36:17.127Z,4.43
2018-04-02T05:37:17.136Z,4.45
2018-04-02T05:38:17.136Z,4.42
2018-04-02T05:39:17.132Z,4.43
2018-04-02T05:40:17.163Z,4.38
2018-04-02T05:41:17.391Z,4.4
2018-04-02T05:42:17.136Z,4.43
2018-04-02T05:43:17.141Z,4.42
2018-04-02T05:44:17.147Z,4.46
2018-04-02T05:45:17.274Z,4.46
2018-04-02T05:46:17.154Z,4.43
2018-04-02T05:47:17.141Z,4.45
2018-04-02T05:48:17.139Z,4.43
2018-04-02T05:49:17.143Z,4.4
2018-04-02T05:50:17.147Z,4.45
2018-04-02T05:51:17.168Z,4.45
2018-04-02T05:52:17.134Z,4.48
2018-04-02T05:53:17.157Z,4.48
2018-04-02T05:54:17.160Z,4.46
2018-04-02T05:55:17.147Z,4.48
2018-04-02T05:56:17.197Z,4.46
2018-04-02T05:57:17.162Z,4.45
2018-04-02T05:58:17.200Z,4.45
2018-04-02T05:59:17.155Z,4.46
2018-04-02T06:00:17.198Z,4.48
2018-04-02T06:01:17.577Z,4.51
2018-04-02T06:02:17.856Z,4.52
2018-04-02T06:03:17.274Z,4.55
2018-04-02T06:04:17.270Z,4.53
2018-04-02T06:05:17.156Z,4.55
2018-04-02T06:06:17.213Z,4.55
2018-04-02T06:07:17.178Z,4.55
2018-04-02T06:08:17.177Z,4.56
2018-04-02T06:09:17.148Z,4.59
2018-04-02T06:10:17.164Z,4.63
2018-04-02T06:11:17.171Z,4.66
2018-04-02T06:12:17.167Z,4.67
2018-04-02T06:13:17.143Z,4.69
2018-04-02T06:14:17.150Z,4.7
2018-04-02T06:15:24.264Z,4.72
2018-04-02T06:16:17.165Z,4.76
2018-04-02T06:17:17.164Z,4.77
2018-04-02T06:18:17.202Z,4.77
2018-04-02T06:19:17.212Z,4.81
2018-04-02T06:20:17.156Z,4.83
2018-04-02T06:21:17.159Z,4.87
2018-04-02T06:22:17.170Z,4.9
2018-04-02T06:23:17.179Z,4.91
2018-04-02T06:24:17.190Z,4.95
2018-04-02T06:25:17.189Z,4.95
2018-04-02T06:26:17.178Z,5
2018-04-02T06:27:17.164Z,4.97
2018-04-02T06:28:17.173Z,5.01
2018-04-02T06:29:17.176Z,5.02
2018-04-02T06:30:17.185Z,5.05
2018-04-02T06:31:17.171Z,5.1
2018-04-02T06:32:17.243Z,5.14
2018-04-02T06:33:17.147Z,5.15
2018-04-02T06:34:17.154Z,5.18
2018-04-02T06:35:17.161Z,5.21
2018-04-02T06:36:17.146Z,5.22
2018-04-02T06:37:17.157Z,5.28
2018-04-02T06:38:17.150Z,5.29
2018-04-02T06:39:17.156Z,5.35
2018-04-02T06:40:17.163Z,5.38
2018-04-02T06:41:17.154Z,5.38
2018-04-02T06:42:17.166Z,5.42
2018-04-02T06:43:17.149Z,5.46
2018-04-02T06:44:17.158Z,5.47
2018-04-02T06:45:17.145Z,5.47
2018-04-02T06:46:17.142Z,5.51
2018-04-02T06:47:17.149Z,5.56
2018-04-02T06:48:17.152Z,5.59
2018-04-02T06:49:17.185Z,5.63
2018-04-02T06:50:17.161Z,5.66
2018-04-02T06:51:17.157Z,5.69
2018-04-02T06:52:17.154Z,5.7
2018-04-02T06:53:17.149Z,5.71
2018-04-02T06:54:17.172Z,5.74
2018-04-02T06:55:17.188Z,5.77
2018-04-02T06:56:17.158Z,5.8
2018-04-02T06:57:17.161Z,5.83
2018-04-02T06:58:17.154Z,5.83
2018-04-02T06:59:17.179Z,5.84
2018-04-02T07:00:17.150Z,5.87
2018-04-02T07:01:17.155Z,5.91
2018-04-02T07:02:17.157Z,5.94
2018-04-02T07:03:17.253Z,6
2018-04-02T07:04:17.164Z,6.01
2018-04-02T07:05:17.153Z,6.06
2018-04-02T07:06:17.159Z,6.08
2018-04-02T07:07:17.154Z,6.12
2018-04-02T07:08:17.167Z,6.13
2018-04-02T07:09:17.150Z,6.18
2018-04-02T07:10:17.160Z,6.18
2018-04-02T07:11:17.163Z,6.19
2018-04-02T07:12:17.156Z,6.22
2018-04-02T07:13:17.166Z,6.25
2018-04-02T07:14:17.152Z,6.25
2018-04-02T07:15:17.162Z,6.22
2018-04-02T07:16:17.507Z,6.29
2018-04-02T07:17:17.175Z,6.36
2018-04-02T07:18:17.164Z,6.37
2018-04-02T07:19:17.163Z,6.4
2018-04-02T07:20:17.167Z,6.43
2018-04-02T07:21:17.193Z,6.48
2018-04-02T07:22:17.170Z,6.5
2018-04-02T07:23:17.186Z,6.53
2018-04-02T07:24:17.230Z,6.53
2018-04-02T07:25:17.159Z,6.56
2018-04-02T07:26:17.169Z,6.58
2018-04-02T07:27:17.169Z,6.58
2018-04-02T07:28:17.180Z,6.6
2018-04-02T07:29:17.162Z,6.61
2018-04-02T07:30:17.166Z,6.63
2018-04-02T07:31:17.246Z,6.65
2018-04-02T07:32:17.156Z,6.65
2018-04-02T07:33:17.190Z,6.67
2018-04-02T07:34:17.362Z,6.67
2018-04-02T07:35:17.161Z,6.67
2018-04-02T07:36:17.202Z,6.67
2018-04-02T07:37:17.219Z,6.68
2018-04-02T07:38:17.164Z,6.74
2018-04-02T07:39:17.177Z,6.71
2018-04-02T07:40:17.156Z,6.73
2018-04-02T07:41:17.180Z,6.73
2018-04-02T07:42:17.159Z,6.78
2018-04-02T07:43:17.168Z,6.8
2018-04-02T07:44:17.318Z,6.8
2018-04-02T07:45:17.167Z,6.78
2018-04-02T07:46:17.176Z,6.77
2018-04-02T07:47:17.169Z,6.78
2018-04-02T07:48:17.176Z,6.81
2018-04-02T07:49:17.172Z,6.83
2018-04-02T07:50:17.198Z,6.85
2018-04-02T07:51:17.181Z,6.88
2018-04-02T07:52:17.163Z,6.91
2018-04-02T07:53:17.170Z,6.92
2018-04-02T07:54:17.178Z,6.98
2018-04-02T07:55:17.197Z,6.98
2018-04-02T07:56:17.185Z,7.01
2018-04-02T07:57:17.175Z,7.05
2018-04-02T07:58:17.166Z,7.06
2018-04-02T07:59:17.161Z,7.12
2018-04-02T08:00:17.177Z,7.12
2018-04-02T08:01:17.165Z,7.12
2018-04-02T08:02:17.183Z,7.11
2018-04-02T08:03:17.168Z,7.18
2018-04-02T08:04:17.350Z,7.18
2018-04-02T08:05:17.264Z,7.2
2018-04-02T08:06:17.184Z,7.23
2018-04-02T08:07:17.174Z,7.24
2018-04-02T08:08:17.181Z,7.27
2018-04-02T08:09:17.197Z,7.26
2018-04-02T08:10:17.174Z,7.27
2018-04-02T08:11:17.172Z,7.29
2018-04-02T08:12:17.180Z,7.3
2018-04-02T08:13:17.180Z,7.33
2018-04-02T08:14:17.177Z,7.37
2018-04-02T08:15:17.178Z,7.4
2018-04-02T08:16:17.187Z,7.43
2018-04-02T08:17:17.209Z,7.44
2018-04-02T08:18:17.174Z,7.47
2018-04-02T08:19:17.179Z,7.48
2018-04-02T08:20:17.178Z,7.54
2018-04-02T08:21:17.359Z,7.55
2018-04-02T08:22:17.198Z,7.58
2018-04-02T08:23:17.176Z,7.58
2018-04-02T08:24:17.176Z,7.62
2018-04-02T08:25:17.275Z,7.67
2018-04-02T08:26:17.222Z,7.67
2018-04-02T08:27:17.215Z,7.69
2018-04-02T08:28:17.299Z,7.74
2018-04-02T08:29:17.197Z,7.78
2018-04-02T08:30:17.185Z,7.81
2018-04-02T08:31:17.177Z,7.82
2018-04-02T08:32:17.183Z,7.85
2018-04-02T08:33:17.186Z,7.88
2018-04-02T08:34:17.177Z,7.89
2018-04-02T08:35:17.184Z,7.92
2018-04-02T08:36:17.259Z,7.93
2018-04-02T08:37:17.185Z,7.98
2018-04-02T08:38:17.175Z,8.01
2018-04-02T08:39:17.560Z,8.02
2018-04-02T08:40:17.200Z,8.08
2018-04-02T08:41:17.193Z,8.1
2018-04-02T08:42:17.192Z,8.13
2018-04-02T08:43:17.172Z,8.17
2018-04-02T08:44:17.386Z,8.21
2018-04-02T08:45:17.180Z,8.26
2018-04-02T08:46:17.216Z,8.26
2018-04-02T08:47:17.202Z,8.27
2018-04-02T08:48:17.188Z,8.31
2018-04-02T08:49:17.213Z,8.41
2018-04-02T08:50:17.181Z,8.4
2018-04-02T08:51:17.208Z,8.51
2018-04-02T08:52:17.173Z,8.54
2018-04-02T08:53:17.182Z,8.57
2018-04-02T08:54:17.226Z,8.61
2018-04-02T08:55:17.206Z,8.69
2018-04-02T08:56:17.209Z,8.66
2018-04-02T08:57:17.391Z,8.75
2018-04-02T08:58:17.212Z,8.78
2018-04-02T08:59:17.220Z,8.82
2018-04-02T09:00:17.289Z,8.89
2018-04-02T09:01:17.219Z,8.92
2018-04-02T09:02:17.210Z,8.98
2018-04-02T09:03:17.226Z,9.04
2018-04-02T09:04:17.271Z,9.14
2018-04-02T09:05:17.255Z,9.2
2018-04-02T09:06:17.237Z,9.24
2018-04-02T09:07:17.243Z,9.29
2018-04-02T09:08:17.223Z,9.31
2018-04-02T09:09:17.186Z,9.34
2018-04-02T09:10:17.194Z,9.4
2018-04-02T09:11:17.239Z,9.48
2018-04-02T09:12:17.223Z,9.59
2018-04-02T09:13:17.324Z,9.61
2018-04-02T09:14:17.274Z,9.62
2018-04-02T09:15:17.225Z,9.65
2018-04-02T09:16:17.229Z,9.69
2018-04-02T09:17:17.201Z,9.76
2018-04-02T09:18:17.235Z,9.79
2018-04-02T09:19:17.209Z,9.83
2018-04-02T09:20:17.558Z,9.85
2018-04-02T09:21:17.206Z,9.89
2018-04-02T09:22:17.200Z,9.94
2018-04-02T09:23:17.214Z,9.99
2018-04-02T09:24:17.231Z,10.04
2018-04-02T09:25:17.254Z,10.04
2018-04-02T09:26:18.664Z,10.06
2018-04-02T09:27:17.208Z,10.14
2018-04-02T09:28:17.208Z,10.19
2018-04-02T09:29:17.220Z,10.27
2018-04-02T09:30:17.195Z,10.28
2018-04-02T09:31:17.236Z,10.31
2018-04-02T09:32:17.214Z,10.3
2018-04-02T09:33:17.212Z,10.32
2018-04-02T09:34:17.191Z,10.35
2018-04-02T09:35:17.192Z,10.39
2018-04-02T09:36:17.202Z,10.48
2018-04-02T09:37:17.224Z,10.48
2018-04-02T09:38:17.257Z,10.44
2018-04-02T09:39:17.233Z,10.47
2018-04-02T09:40:17.226Z,10.55
2018-04-02T09:41:17.218Z,10.59
2018-04-02T09:42:17.244Z,10.61
2018-04-02T09:43:17.205Z,10.71
2018-04-02T09:44:17.214Z,10.78
2018-04-02T09:45:17.203Z,10.82
2018-04-02T09:46:17.276Z,10.82
2018-04-02T09:47:17.228Z,10.87
2018-04-02T09:48:17.243Z,10.92
2018-04-02T09:49:17.225Z,10.99
2018-04-02T09:50:17.194Z,11.01
2018-04-02T09:51:17.229Z,11.17
2018-04-02T09:52:17.217Z,11.27
2018-04-02T09:53:17.276Z,11.35
2018-04-02T09:54:17.419Z,11.34
2018-04-02T09:55:17.224Z,11.38
2018-04-02T09:56:17.259Z,11.37
2018-04-02T09:57:17.266Z,11.41
2018-04-02T09:58:17.237Z,11.44
2018-04-02T09:59:17.596Z,11.41
2018-04-02T10:00:17.255Z,11.49
2018-04-02T10:01:17.219Z,11.49
2018-04-02T10:02:17.223Z,11.52
2018-04-02T10:03:17.259Z,11.58
2018-04-02T10:04:17.211Z,11.56
2018-04-02T10:05:17.317Z,11.58
2018-04-02T10:06:17.249Z,11.75
2018-04-02T10:07:17.268Z,11.8
2018-04-02T10:08:17.260Z,11.72
2018-04-02T10:09:18.276Z,11.75
2018-04-02T10:10:18.490Z,11.87
2018-04-02T10:11:18.599Z,11.93
2018-04-02T10:12:17.361Z,11.94
2018-04-02T10:13:17.228Z,11.93
2018-04-02T10:14:17.222Z,11.93
2018-04-02T10:15:17.224Z,11.96
2018-04-02T10:16:17.216Z,11.98
2018-04-02T10:17:17.233Z,12.03
2018-04-02T10:18:17.208Z,12.08
2018-04-02T10:19:17.218Z,12.16
2018-04-02T10:20:17.228Z,12.17
2018-04-02T10:21:17.234Z,12.2
2018-04-02T10:22:17.206Z,12.21
2018-04-02T10:23:17.215Z,12.27
2018-04-02T10:24:17.251Z,12.38
2018-04-02T10:25:17.209Z,12.41
2018-04-02T10:26:17.395Z,12.44
2018-04-02T10:27:17.209Z,12.48
2018-04-02T10:28:17.220Z,12.48
2018-04-02T10:29:17.359Z,12.46
2018-04-02T10:30:17.224Z,12.41
2018-04-02T10:31:17.231Z,12.46
2018-04-02T10:32:17.246Z,12.55
2018-04-02T10:33:17.220Z,12.66
2018-04-02T10:34:17.212Z,12.65
2018-04-02T10:35:17.231Z,12.66
2018-04-02T10:36:17.230Z,12.79
2018-04-02T10:37:17.357Z,12.77
2018-04-02T10:38:17.225Z,12.73
2018-04-02T10:39:17.226Z,12.76
2018-04-02T10:40:17.228Z,12.7
2018-04-02T10:41:17.230Z,12.67
2018-04-02T10:42:17.220Z,12.69
2018-04-02T10:43:17.480Z,12.69
2018-04-02T10:44:17.250Z,12.6
2018-04-02T10:45:17.248Z,12.57
2018-04-02T10:46:17.239Z,12.62
2018-04-02T10:47:17.235Z,12.63
2018-04-02T10:48:17.278Z,12.69
2018-04-02T10:49:17.220Z,12.67
2018-04-02T10:50:17.225Z,12.67
2018-04-02T10:51:17.228Z,12.67
2018-04-02T10:52:17.227Z,12.65
2018-04-02T10:53:17.250Z,12.67
2018-04-02T10:54:17.233Z,12.74
2018-04-02T10:55:17.242Z,12.73
2018-04-02T10:56:17.222Z,12.77
2018-04-02T10:57:17.241Z,12.88
2018-04-02T10:58:17.250Z,12.94
2018-04-02T10:59:17.247Z,13.06
2018-04-02T11:00:17.282Z,13.14
2018-04-02T11:01:17.237Z,13.24
2018-04-02T11:02:17.225Z,13.22
2018-04-02T11:03:17.542Z,13.31
2018-04-02T11:04:17.232Z,13.38
2018-04-02T11:05:17.235Z,13.32
2018-04-02T11:06:17.391Z,13.43
2018-04-02T11:07:17.246Z,13.38
2018-04-02T11:08:17.252Z,13.36
2018-04-02T11:09:17.270Z,13.39
2018-04-02T11:10:17.258Z,13.41
2018-04-02T11:11:17.235Z,13.5
2018-04-02T11:12:17.230Z,13.49
2018-04-02T11:13:17.232Z,13.45
2018-04-02T11:14:17.341Z,13.45
2018-04-02T11:15:17.240Z,13.55
2018-04-02T11:16:17.256Z,13.6
2018-04-02T11:17:17.233Z,13.6
2018-04-02T11:18:17.257Z,13.63
2018-04-02T11:19:17.234Z,13.63
2018-04-02T11:20:17.231Z,13.62
2018-04-02T11:21:17.242Z,13.59
2018-04-02T11:22:17.250Z,13.59
2018-04-02T11:23:17.287Z,13.52
2018-04-02T11:24:17.232Z,13.49
2018-04-02T11:25:17.240Z,13.49
2018-04-02T11:26:17.236Z,13.45
2018-04-02T11:27:17.247Z,13.41
2018-04-02T11:28:17.234Z,13.41
2018-04-02T11:29:17.235Z,13.43
2018-04-02T11:30:17.256Z,13.42
2018-04-02T11:31:17.257Z,13.38
2018-04-02T11:32:17.243Z,13.45
2018-04-02T11:33:17.251Z,13.47
2018-04-02T11:34:17.250Z,13.5
2018-04-02T11:35:17.249Z,13.59
2018-04-02T11:36:17.248Z,13.64
2018-04-02T11:37:17.309Z,13.67
2018-04-02T11:38:17.247Z,13.74
2018-04-02T11:39:17.251Z,13.77
2018-04-02T11:40:17.256Z,13.8
2018-04-02T11:41:17.254Z,13.8
2018-04-02T11:42:17.264Z,13.82
2018-04-02T11:43:17.252Z,13.87
2018-04-02T11:44:17.241Z,13.91
2018-04-02T11:45:17.322Z,13.97
2018-04-02T11:46:17.242Z,14.04
2018-04-02T11:47:17.285Z,14.02
2018-04-02T11:48:17.260Z,14.08
2018-04-02T11:49:17.251Z,14.17
2018-04-02T11:50:17.251Z,14.24
2018-04-02T11:51:17.255Z,14.29
2018-04-02T11:52:17.273Z,14.4
2018-04-02T11:53:17.262Z,14.45
2018-04-02T11:54:17.272Z,14.45
2018-04-02T11:55:17.257Z,14.55
2018-04-02T11:56:17.256Z,14.63
2018-04-02T11:57:17.566Z,14.64
2018-04-02T11:58:17.253Z,14.69
2018-04-02T11:59:17.269Z,14.74
2018-04-02T12:00:17.257Z,14.72
2018-04-02T12:01:17.297Z,14.83
2018-04-02T12:02:17.287Z,14.83
2018-04-02T12:03:17.270Z,14.88
2018-04-02T12:04:17.274Z,14.97
2018-04-02T12:05:17.279Z,14.97
2018-04-02T12:06:17.263Z,15
2018-04-02T12:07:17.556Z,14.91
2018-04-02T12:08:17.288Z,14.86
2018-04-02T12:09:17.338Z,14.86
2018-04-02T12:10:17.266Z,14.73
2018-04-02T12:11:17.260Z,14.67
2018-04-02T12:12:17.287Z,14.59
2018-04-02T12:13:17.266Z,14.53
2018-04-02T12:14:17.276Z,14.51
2018-04-02T12:15:17.284Z,14.49
2018-04-02T12:16:17.335Z,14.46
2018-04-02T12:17:17.293Z,14.42
2018-04-02T12:18:17.277Z,14.4
2018-04-02T12:19:17.270Z,14.43
2018-04-02T12:20:17.322Z,14.43
2018-04-02T12:21:17.288Z,14.43
2018-04-02T12:22:17.267Z,14.49
2018-04-02T12:23:17.272Z,14.43
2018-04-02T12:24:17.268Z,14.51
2018-04-02T12:25:17.282Z,14.48
2018-04-02T12:26:17.271Z,14.52
2018-04-02T12:27:17.278Z,14.56
2018-04-02T12:28:17.305Z,14.59
2018-04-02T12:29:17.282Z,14.62
2018-04-02T12:30:17.286Z,14.66
2018-04-02T12:31:17.288Z,14.67
2018-04-02T12:32:17.396Z,14.73
2018-04-02T12:33:17.279Z,14.8
2018-04-02T12:34:17.285Z,15
2018-04-02T12:35:17.285Z,15.12
2018-04-02T12:36:17.299Z,15.17
2018-04-02T12:37:17.278Z,15.18
2018-04-02T12:38:17.270Z,15.22
2018-04-02T12:39:17.281Z,15.23
2018-04-02T12:40:17.272Z,15.23
2018-04-02T12:41:17.275Z,15.28
2018-04-02T12:42:17.269Z,15.41
2018-04-02T12:43:17.407Z,15.41
2018-04-02T12:44:17.963Z,15.54
2018-04-02T12:45:17.345Z,15.57
2018-04-02T12:46:17.317Z,15.62
2018-04-02T12:47:17.371Z,15.66
2018-04-02T12:48:17.283Z,15.7
2018-04-02T12:49:17.287Z,15.74
2018-04-02T12:50:17.289Z,15.8
2018-04-02T12:51:17.287Z,15.8
2018-04-02T12:52:17.287Z,15.82
2018-04-02T12:53:17.306Z,15.8
2018-04-02T12:54:17.289Z,15.82
2018-04-02T12:55:17.285Z,15.8
2018-04-02T12:56:17.289Z,15.82
2018-04-02T12:57:17.291Z,15.87
2018-04-02T12:58:17.299Z,15.88
2018-04-02T12:59:17.332Z,15.87
2018-04-02T13:00:17.308Z,15.9
2018-04-02T13:01:17.300Z,15.91
2018-04-02T13:02:17.313Z,15.99
2018-04-02T13:03:17.290Z,16.02
2018-04-02T13:04:17.322Z,16.02
2018-04-02T13:05:17.298Z,16.07
2018-04-02T13:06:17.308Z,16.05
2018-04-02T13:07:17.337Z,16.07
2018-04-02T13:08:17.295Z,16.22
2018-04-02T13:09:17.301Z,16.22
2018-04-02T13:10:17.308Z,16.18
2018-04-02T13:11:17.302Z,16.19
2018-04-02T13:12:17.306Z,16.21
2018-04-02T13:13:17.300Z,16.25
2018-04-02T13:14:17.335Z,16.22